Time;durP1;ratioP1;P1;durP2;ratioP2;P2;SDS_P1;SDS_P2;PMS_P1;PMS_P2;Temp;Humidity;BMP_temperature;BMP_pressure;BME280_temperature;BME280_humidity;BME280_pressure;Samples;Min_cycle;Max_cycle;Signal;HPM_P1;HPM_P2
2022/11/30 00:00:13;;;;;;;53.23;27.20;;;;;;;;;;523922;28;1050;-61
2022/11/30 00:00:29;;;;;;;54.05;27.45;;;;;;;;;;522098;28;1383;-61
2022/11/30 00:00:44;;;;;;;56.60;27.02;;;;;;;;;;523245;28;1148;-61
2022/11/30 00:01:10;;;;;;;48.20;25.37;;;;;;;;;;524120;28;1256;-61
2022/11/30 00:01:25;;;;;;;47.97;26.23;;;;;;;;;;522725;28;1362;-61
2022/11/30 00:01:40;;;;;;;46.63;26.80;;;;;;;;;;522610;28;1313;-61
2022/11/30 00:01:55;;;;;;;48.53;26.80;;;;;;;;;;521693;28;1089;-61
2022/11/30 00:02:11;;;;;;;49.60;26.77;;;;;;;;;;523616;28;1471;-61
2022/11/30 00:02:29;;;;;;;47.20;25.90;;;;;;;;;;521298;28;1179;-61
2022/11/30 00:02:44;;;;;;;51.60;26.30;;;;;;;;;;523054;28;1525;-61
2022/11/30 00:02:59;;;;;;;52.10;27.57;;;;;;;;;;522120;28;1692;-61
2022/11/30 00:03:15;;;;;;;50.03;27.55;;;;;;;;;;523256;28;1270;-61
2022/11/30 00:03:30;;;;;;;50.10;27.83;;;;;;;;;;524024;28;1909;-61
2022/11/30 00:03:46;;;;;;;49.53;27.40;;;;;;;;;;523630;28;1185;-61
2022/11/30 00:04:01;;;;;;;49.33;26.58;;;;;;;;;;523374;28;1240;-61
2022/11/30 00:04:17;;;;;;;46.97;25.80;;;;;;;;;;519779;28;1426;-61
2022/11/30 00:04:32;;;;;;;47.27;25.83;;;;;;;;;;520755;28;2218;-61
2022/11/30 00:04:47;;;;;;;50.30;26.83;;;;;;;;;;519482;28;1220;-61
2022/11/30 00:05:03;;;;;;;50.90;27.20;;;;;;;;;;519568;28;1400;-61
2022/11/30 00:05:19;;;;;;;52.22;27.55;;;;;;;;;;519114;28;1335;-61
2022/11/30 00:05:35;;;;;;;50.85;27.58;;;;;;;;;;520141;28;1341;-61
2022/11/30 00:05:51;;;;;;;48.15;26.45;;;;;;;;;;518065;28;1118;-60
2022/11/30 00:06:08;;;;;;;50.22;27.10;;;;;;;;;;518314;28;2060;-61
2022/11/30 00:06:24;;;;;;;54.38;28.50;;;;;;;;;;520329;28;1197;-61
2022/11/30 00:06:43;;;;;;;54.28;28.33;;;;;;;;;;520680;28;1289;-61
2022/11/30 00:06:58;;;;;;;55.53;28.58;;;;;;;;;;522498;28;1194;-61
2022/11/30 00:07:13;;;;;;;52.63;27.87;;;;;;;;;;519932;28;1212;-61
2022/11/30 00:07:29;;;;;;;47.95;27.02;;;;;;;;;;520916;28;1094;-61
2022/11/30 00:07:44;;;;;;;51.60;27.80;;;;;;;;;;522446;28;2050;-61
2022/11/30 00:08:00;;;;;;;53.10;28.27;;;;;;;;;;519577;28;1409;-61
2022/11/30 00:08:15;;;;;;;48.03;27.02;;;;;;;;;;520492;28;1269;-61
2022/11/30 00:08:31;;;;;;;46.13;25.75;;;;;;;;;;521465;28;1190;-61
2022/11/30 00:08:46;;;;;;;50.63;26.50;;;;;;;;;;521752;28;1114;-61
2022/11/30 00:09:01;;;;;;;50.33;26.97;;;;;;;;;;521163;28;1926;-61
2022/11/30 00:09:16;;;;;;;45.00;25.30;;;;;;;;;;521761;28;1727;-61
2022/11/30 00:09:32;;;;;;;43.93;24.63;;;;;;;;;;521182;28;1468;-61
2022/11/30 00:09:47;;;;;;;48.43;26.10;;;;;;;;;;522386;28;1509;-61
2022/11/30 00:10:03;;;;;;;49.03;26.10;;;;;;;;;;521080;28;1332;-61
2022/11/30 00:10:20;;;;;;;47.90;25.80;;;;;;;;;;519956;28;1071;-61
2022/11/30 00:10:37;;;;;;;48.13;26.83;;;;;;;;;;520621;28;1164;-61
2022/11/30 00:10:52;;;;;;;45.30;26.52;;;;;;;;;;519367;28;1678;-61
2022/11/30 00:11:19;;;;;;;46.47;26.30;;;;;;;;;;521274;28;1416;-61
2022/11/30 00:11:34;;;;;;;50.05;26.05;;;;;;;;;;522917;28;1161;-61
2022/11/30 00:11:50;;;;;;;53.83;26.73;;;;;;;;;;519738;28;1170;-60
2022/11/30 00:12:05;;;;;;;48.63;26.07;;;;;;;;;;520147;28;1200;-61
2022/11/30 00:12:21;;;;;;;43.70;25.30;;;;;;;;;;521631;28;1756;-61
2022/11/30 00:12:36;;;;;;;44.30;25.70;;;;;;;;;;521791;28;1348;-61
2022/11/30 00:12:53;;;;;;;45.73;26.33;;;;;;;;;;520811;28;1209;-61
2022/11/30 00:13:08;;;;;;;48.63;25.90;;;;;;;;;;520444;28;1392;-61
2022/11/30 00:13:23;;;;;;;46.22;25.00;;;;;;;;;;523310;28;1269;-61
2022/11/30 00:13:39;;;;;;;43.67;25.00;;;;;;;;;;523200;28;1437;-61
2022/11/30 00:13:55;;;;;;;44.10;26.17;;;;;;;;;;524569;28;1387;-61
2022/11/30 00:14:10;;;;;;;44.37;25.83;;;;;;;;;;524574;27;1411;-61
2022/11/30 00:14:25;;;;;;;43.58;25.15;;;;;;;;;;522224;28;1245;-61
2022/11/30 00:14:41;;;;;;;45.63;25.87;;;;;;;;;;520865;28;1653;-61
2022/11/30 00:14:56;;;;;;;45.97;25.93;;;;;;;;;;520349;28;1539;-61
2022/11/30 00:15:13;;;;;;;44.47;25.80;;;;;;;;;;517429;28;1333;-61
2022/11/30 00:15:28;;;;;;;45.90;26.58;;;;;;;;;;516185;28;1080;-61
2022/11/30 00:15:44;;;;;;;47.43;26.37;;;;;;;;;;516277;28;2117;-61
2022/11/30 00:16:00;;;;;;;47.37;26.13;;;;;;;;;;514817;28;1298;-61
2022/11/30 00:16:15;;;;;;;47.72;26.50;;;;;;;;;;515056;28;1469;-63
2022/11/30 00:16:31;;;;;;;47.80;26.47;;;;;;;;;;514442;28;1194;-61
2022/11/30 00:16:46;;;;;;;49.87;27.27;;;;;;;;;;518847;28;1295;-61
2022/11/30 00:17:01;;;;;;;52.92;27.85;;;;;;;;;;517252;28;1637;-61
2022/11/30 00:17:16;;;;;;;54.93;27.80;;;;;;;;;;518755;28;1831;-61
2022/11/30 00:17:32;;;;;;;54.13;27.53;;;;;;;;;;519074;28;1416;-61
2022/11/30 00:17:47;;;;;;;53.90;27.47;;;;;;;;;;516521;28;1222;-61
2022/11/30 00:18:02;;;;;;;54.20;27.10;;;;;;;;;;519896;28;1302;-61
2022/11/30 00:18:18;;;;;;;53.43;27.37;;;;;;;;;;519476;28;1431;-61
2022/11/30 00:18:34;;;;;;;54.20;28.23;;;;;;;;;;519209;28;1369;-61
2022/11/30 00:18:49;;;;;;;52.90;27.87;;;;;;;;;;519668;28;1753;-61
2022/11/30 00:19:04;;;;;;;54.42;27.83;;;;;;;;;;519873;28;1134;-61
2022/11/30 00:19:20;;;;;;;54.57;27.97;;;;;;;;;;519586;28;1364;-61
2022/11/30 00:19:35;;;;;;;53.83;28.33;;;;;;;;;;520230;28;1539;-61
2022/11/30 00:19:50;;;;;;;55.40;28.93;;;;;;;;;;518743;28;1443;-61
2022/11/30 00:20:07;;;;;;;57.20;28.80;;;;;;;;;;518148;28;1836;-61
2022/11/30 00:20:23;;;;;;;56.83;28.55;;;;;;;;;;519270;28;1389;-61
2022/11/30 00:20:38;;;;;;;56.83;28.30;;;;;;;;;;518989;28;1309;-61
2022/11/30 00:20:54;;;;;;;55.03;28.37;;;;;;;;;;518018;28;1430;-61
2022/11/30 00:21:11;;;;;;;56.08;28.80;;;;;;;;;;518855;28;1137;-61
2022/11/30 00:21:27;;;;;;;58.28;28.60;;;;;;;;;;518485;28;1457;-61
2022/11/30 00:21:42;;;;;;;56.38;28.27;;;;;;;;;;517869;28;1541;-61
2022/11/30 00:21:57;;;;;;;56.37;28.47;;;;;;;;;;518661;28;1447;-61
2022/11/30 00:22:12;;;;;;;57.17;28.60;;;;;;;;;;516925;28;2068;-61
2022/11/30 00:22:28;;;;;;;55.70;28.33;;;;;;;;;;515341;28;1481;-61
2022/11/30 00:22:43;;;;;;;54.30;27.83;;;;;;;;;;516554;28;1267;-61
2022/11/30 00:22:58;;;;;;;53.97;28.10;;;;;;;;;;517452;28;1382;-61
2022/11/30 00:23:13;;;;;;;54.40;27.90;;;;;;;;;;516059;28;1559;-61
2022/11/30 00:23:36;;;;;;;49.13;26.13;;;;;;;;;;514581;28;1474;-61
2022/11/30 00:23:51;;;;;;;47.90;25.83;;;;;;;;;;516194;28;2077;-61
2022/11/30 00:24:07;;;;;;;49.58;26.77;;;;;;;;;;516951;28;1893;-61
2022/11/30 00:24:22;;;;;;;50.30;26.80;;;;;;;;;;518396;28;1102;-61
2022/11/30 00:24:38;;;;;;;48.67;26.40;;;;;;;;;;519275;28;1354;-61
2022/11/30 00:24:53;;;;;;;50.40;25.80;;;;;;;;;;519130;28;1419;-61
2022/11/30 00:25:08;;;;;;;50.60;25.97;;;;;;;;;;520658;28;1405;-60
2022/11/30 00:25:24;;;;;;;48.38;26.00;;;;;;;;;;520603;28;1713;-61
2022/11/30 00:25:39;;;;;;;48.03;25.33;;;;;;;;;;520074;28;1234;-61
2022/11/30 00:25:59;;;;;;;49.75;25.60;;;;;;;;;;520294;28;1443;-61
2022/11/30 00:26:17;;;;;;;49.72;26.13;;;;;;;;;;517158;28;1239;-61
2022/11/30 00:26:32;;;;;;;48.60;26.67;;;;;;;;;;517627;28;1322;-61
2022/11/30 00:26:47;;;;;;;48.10;26.33;;;;;;;;;;518457;28;1274;-61
2022/11/30 00:27:03;;;;;;;46.78;26.00;;;;;;;;;;519046;28;1698;-61
2022/11/30 00:27:18;;;;;;;46.63;26.40;;;;;;;;;;518090;28;1384;-61
2022/11/30 00:27:34;;;;;;;47.47;25.80;;;;;;;;;;518014;28;1203;-61
2022/11/30 00:27:49;;;;;;;47.58;25.52;;;;;;;;;;521066;28;1238;-61
2022/11/30 00:28:04;;;;;;;47.23;26.53;;;;;;;;;;523095;28;1348;-61
2022/11/30 00:28:19;;;;;;;43.90;25.87;;;;;;;;;;525381;28;1121;-61
2022/11/30 00:28:36;;;;;;;43.33;24.88;;;;;;;;;;520474;28;2394;-61
2022/11/30 00:28:51;;;;;;;44.78;24.80;;;;;;;;;;520360;28;1225;-60
2022/11/30 00:29:07;;;;;;;46.58;25.65;;;;;;;;;;519462;28;1911;-61
2022/11/30 00:29:22;;;;;;;46.37;25.23;;;;;;;;;;519596;28;1202;-61
2022/11/30 00:29:37;;;;;;;46.40;25.37;;;;;;;;;;517766;28;1184;-61
2022/11/30 00:29:52;;;;;;;50.47;26.80;;;;;;;;;;519008;28;1341;-61
2022/11/30 00:30:08;;;;;;;48.30;26.97;;;;;;;;;;516739;28;1734;-61
2022/11/30 00:30:23;;;;;;;44.67;26.05;;;;;;;;;;518556;28;1325;-61
2022/11/30 00:30:39;;;;;;;45.77;25.33;;;;;;;;;;517707;28;1400;-60
2022/11/30 00:31:05;;;;;;;49.37;25.70;;;;;;;;;;516725;28;1351;-61
2022/11/30 00:31:20;;;;;;;50.63;26.13;;;;;;;;;;520353;28;1105;-61
2022/11/30 00:31:35;;;;;;;51.92;27.50;;;;;;;;;;521260;28;1418;-61
2022/11/30 00:31:51;;;;;;;54.60;28.27;;;;;;;;;;521471;28;1693;-61
2022/11/30 00:32:06;;;;;;;54.63;28.13;;;;;;;;;;521118;28;1256;-61
2022/11/30 00:32:21;;;;;;;53.07;27.93;;;;;;;;;;522133;28;1423;-61
2022/11/30 00:32:36;;;;;;;52.75;27.58;;;;;;;;;;520665;28;1232;-61
2022/11/30 00:32:56;;;;;;;54.30;27.40;;;;;;;;;;522350;28;1375;-61
2022/11/30 00:33:11;;;;;;;53.15;27.85;;;;;;;;;;521978;28;1420;-61
2022/11/30 00:33:27;;;;;;;54.67;28.07;;;;;;;;;;518776;28;1732;-61
2022/11/30 00:33:43;;;;;;;53.60;27.80;;;;;;;;;;520341;28;1383;-61
2022/11/30 00:33:58;;;;;;;54.80;28.33;;;;;;;;;;516888;28;1119;-61
2022/11/30 00:34:13;;;;;;;56.55;28.40;;;;;;;;;;516671;28;1398;-61
2022/11/30 00:34:28;;;;;;;55.87;28.83;;;;;;;;;;516578;28;1362;-61
2022/11/30 00:34:44;;;;;;;55.10;28.70;;;;;;;;;;515336;28;1198;-61
2022/11/30 00:34:59;;;;;;;54.07;27.80;;;;;;;;;;514826;28;1465;-61
2022/11/30 00:35:16;;;;;;;53.78;27.67;;;;;;;;;;514757;28;1183;-61
2022/11/30 00:35:31;;;;;;;55.35;28.38;;;;;;;;;;518121;28;1088;-61
2022/11/30 00:35:55;;;;;;;55.27;28.50;;;;;;;;;;518114;28;1079;-61
2022/11/30 00:36:20;;;;;;;55.13;28.80;;;;;;;;;;522025;28;1695;-61
2022/11/30 00:36:36;;;;;;;55.05;29.15;;;;;;;;;;518601;28;1741;-60
2022/11/30 00:36:51;;;;;;;56.00;29.23;;;;;;;;;;518869;28;1389;-61
2022/11/30 00:37:06;;;;;;;56.15;29.35;;;;;;;;;;518266;28;1438;-61
2022/11/30 00:37:21;;;;;;;59.93;29.50;;;;;;;;;;518505;28;1285;-61
2022/11/30 00:37:37;;;;;;;62.77;29.47;;;;;;;;;;519939;28;1385;-61
2022/11/30 00:37:52;;;;;;;58.53;29.00;;;;;;;;;;520098;28;1089;-61
2022/11/30 00:38:07;;;;;;;56.57;28.67;;;;;;;;;;520224;28;1290;-61
2022/11/30 00:38:23;;;;;;;58.20;28.40;;;;;;;;;;520455;28;1360;-61
2022/11/30 00:38:39;;;;;;;58.17;29.05;;;;;;;;;;520860;28;1248;-61
2022/11/30 00:38:54;;;;;;;60.50;29.92;;;;;;;;;;521955;28;1348;-61
2022/11/30 00:39:09;;;;;;;63.00;29.53;;;;;;;;;;521567;28;1154;-61
2022/11/30 00:39:25;;;;;;;62.47;29.53;;;;;;;;;;522879;28;1343;-61
2022/11/30 00:39:40;;;;;;;61.70;29.85;;;;;;;;;;519318;28;1361;-61
2022/11/30 00:39:55;;;;;;;60.43;29.37;;;;;;;;;;518340;28;1366;-61
2022/11/30 00:40:11;;;;;;;59.70;28.87;;;;;;;;;;521402;28;1355;-61
2022/11/30 00:40:26;;;;;;;57.35;28.83;;;;;;;;;;520663;28;1295;-60
2022/11/30 00:40:42;;;;;;;57.83;29.23;;;;;;;;;;521819;28;1432;-61
2022/11/30 00:40:59;;;;;;;62.50;29.90;;;;;;;;;;521373;28;1372;-61
2022/11/30 00:41:15;;;;;;;64.03;30.25;;;;;;;;;;521435;28;1130;-61
2022/11/30 00:41:30;;;;;;;63.80;29.92;;;;;;;;;;521968;28;1306;-61
2022/11/30 00:41:45;;;;;;;60.17;29.33;;;;;;;;;;524738;28;1406;-61
2022/11/30 00:42:01;;;;;;;56.33;29.63;;;;;;;;;;523412;27;1125;-61
2022/11/30 00:42:16;;;;;;;60.42;29.95;;;;;;;;;;523345;28;1212;-61
2022/11/30 00:42:31;;;;;;;61.57;29.77;;;;;;;;;;520387;28;1202;-61
2022/11/30 00:42:47;;;;;;;58.17;29.70;;;;;;;;;;521072;28;1218;-61
2022/11/30 00:43:02;;;;;;;55.45;28.70;;;;;;;;;;521824;28;1912;-61
2022/11/30 00:43:17;;;;;;;58.63;28.97;;;;;;;;;;520482;28;1487;-61
2022/11/30 00:43:32;;;;;;;61.10;29.27;;;;;;;;;;520312;28;1157;-61
2022/11/30 00:43:48;;;;;;;58.20;29.52;;;;;;;;;;517573;28;1346;-61
2022/11/30 00:44:03;;;;;;;58.03;29.73;;;;;;;;;;518980;28;1238;-61
2022/11/30 00:44:18;;;;;;;60.23;29.13;;;;;;;;;;515752;28;1118;-61
2022/11/30 00:44:34;;;;;;;62.22;29.17;;;;;;;;;;514182;28;1393;-61
2022/11/30 00:44:49;;;;;;;64.97;29.63;;;;;;;;;;511701;28;1349;-61
2022/11/30 00:45:05;;;;;;;62.27;29.70;;;;;;;;;;516689;28;1271;-61
2022/11/30 00:45:20;;;;;;;56.40;29.02;;;;;;;;;;517305;28;1350;-61
2022/11/30 00:45:35;;;;;;;58.20;29.23;;;;;;;;;;518001;28;1381;-61
2022/11/30 00:45:51;;;;;;;57.75;29.23;;;;;;;;;;519254;28;1201;-61
2022/11/30 00:46:09;;;;;;;58.00;29.03;;;;;;;;;;516297;28;1248;-61
2022/11/30 00:46:24;;;;;;;59.53;29.50;;;;;;;;;;519219;28;1187;-61
2022/11/30 00:46:40;;;;;;;61.03;29.17;;;;;;;;;;521049;28;1095;-61
2022/11/30 00:46:55;;;;;;;58.30;29.10;;;;;;;;;;521221;28;1672;-61
2022/11/30 00:47:10;;;;;;;52.10;28.20;;;;;;;;;;517436;28;1199;-61
2022/11/30 00:47:26;;;;;;;48.58;26.55;;;;;;;;;;519558;28;1334;-61
2022/11/30 00:47:41;;;;;;;49.57;26.87;;;;;;;;;;517971;28;1414;-61
2022/11/30 00:47:56;;;;;;;50.87;27.37;;;;;;;;;;517866;28;1423;-61
2022/11/30 00:48:11;;;;;;;48.45;26.35;;;;;;;;;;517297;28;1259;-61
2022/11/30 00:48:27;;;;;;;46.50;25.57;;;;;;;;;;514429;28;1182;-62
2022/11/30 00:48:43;;;;;;;48.53;25.87;;;;;;;;;;518486;28;1393;-61
2022/11/30 00:48:58;;;;;;;49.47;26.13;;;;;;;;;;520682;28;1979;-61
2022/11/30 00:49:13;;;;;;;46.20;25.63;;;;;;;;;;520711;28;1288;-61
2022/11/30 00:49:28;;;;;;;44.08;25.20;;;;;;;;;;522714;28;1739;-61
2022/11/30 00:49:44;;;;;;;45.30;24.70;;;;;;;;;;519962;28;1685;-61
2022/11/30 00:49:59;;;;;;;49.13;25.23;;;;;;;;;;519547;28;1669;-61
2022/11/30 00:50:14;;;;;;;51.50;26.50;;;;;;;;;;520175;28;1202;-61
2022/11/30 00:50:30;;;;;;;53.20;27.20;;;;;;;;;;518983;28;1094;-61
2022/11/30 00:50:47;;;;;;;55.00;27.23;;;;;;;;;;518548;28;1137;-61
2022/11/30 00:51:03;;;;;;;53.42;26.70;;;;;;;;;;520164;28;1779;-61
2022/11/30 00:51:19;;;;;;;52.00;26.52;;;;;;;;;;518689;28;1353;-61
2022/11/30 00:51:34;;;;;;;53.27;27.87;;;;;;;;;;515825;28;1419;-61
2022/11/30 00:51:50;;;;;;;55.00;28.45;;;;;;;;;;518487;28;1233;-61
2022/11/30 00:52:05;;;;;;;56.07;28.07;;;;;;;;;;521143;28;1165;-61
2022/11/30 00:52:20;;;;;;;53.10;27.65;;;;;;;;;;521080;28;1566;-61
2022/11/30 00:52:35;;;;;;;48.47;26.73;;;;;;;;;;521827;28;1217;-61
2022/11/30 00:52:51;;;;;;;48.07;26.40;;;;;;;;;;519497;28;2174;-61
2022/11/30 00:53:06;;;;;;;48.70;26.77;;;;;;;;;;518951;28;1099;-61
2022/11/30 00:53:22;;;;;;;46.03;25.67;;;;;;;;;;516877;28;1420;-61
2022/11/30 00:53:38;;;;;;;44.77;24.73;;;;;;;;;;519921;28;1598;-61
2022/11/30 00:53:53;;;;;;;47.80;25.70;;;;;;;;;;519017;28;1114;-61
2022/11/30 00:54:09;;;;;;;54.13;28.07;;;;;;;;;;518419;28;1074;-61
2022/11/30 00:54:24;;;;;;;57.50;29.15;;;;;;;;;;518767;28;1824;-61
2022/11/30 00:54:39;;;;;;;56.80;29.47;;;;;;;;;;520203;28;1432;-61
2022/11/30 00:54:55;;;;;;;54.70;29.03;;;;;;;;;;522440;28;1387;-61
2022/11/30 00:55:10;;;;;;;52.78;28.48;;;;;;;;;;518541;28;1214;-61
2022/11/30 00:55:26;;;;;;;54.77;28.87;;;;;;;;;;520472;28;1218;-61
2022/11/30 00:55:42;;;;;;;56.92;28.58;;;;;;;;;;517005;28;1644;-61
2022/11/30 00:55:58;;;;;;;56.45;28.60;;;;;;;;;;517216;28;1667;-61
2022/11/30 00:56:13;;;;;;;54.87;28.77;;;;;;;;;;517019;28;1989;-61
2022/11/30 00:56:28;;;;;;;53.70;28.48;;;;;;;;;;517225;28;1208;-61
2022/11/30 00:56:44;;;;;;;53.83;28.13;;;;;;;;;;517239;28;1181;-61
2022/11/30 00:56:59;;;;;;;55.38;28.08;;;;;;;;;;519414;28;1411;-61
2022/11/30 00:57:15;;;;;;;56.17;28.53;;;;;;;;;;520715;28;1395;-61
2022/11/30 00:57:30;;;;;;;55.83;28.87;;;;;;;;;;522590;28;1701;-61
2022/11/30 00:57:45;;;;;;;57.17;28.83;;;;;;;;;;521047;28;1276;-61
2022/11/30 00:58:01;;;;;;;58.83;28.50;;;;;;;;;;519523;28;1407;-61
2022/11/30 00:58:16;;;;;;;57.65;28.02;;;;;;;;;;520833;28;1064;-61
2022/11/30 00:58:32;;;;;;;56.30;28.13;;;;;;;;;;521506;28;1069;-61
2022/11/30 00:58:47;;;;;;;56.67;28.17;;;;;;;;;;520441;28;1129;-61
2022/11/30 00:59:02;;;;;;;56.65;28.38;;;;;;;;;;521345;28;1701;-61
2022/11/30 00:59:18;;;;;;;56.10;28.47;;;;;;;;;;519514;28;1234;-61
2022/11/30 00:59:33;;;;;;;55.20;28.07;;;;;;;;;;519651;28;1310;-61
2022/11/30 00:59:48;;;;;;;55.90;28.37;;;;;;;;;;520826;28;1206;-61
2022/11/30 01:00:04;;;;;;;55.43;28.53;;;;;;;;;;519690;28;1218;-61
2022/11/30 01:00:19;;;;;;;54.03;28.25;;;;;;;;;;521825;28;1117;-61
2022/11/30 01:00:35;;;;;;;53.00;27.93;;;;;;;;;;520291;28;1154;-61
2022/11/30 01:00:50;;;;;;;52.63;27.70;;;;;;;;;;521959;28;2088;-61
2022/11/30 01:01:06;;;;;;;53.10;28.33;;;;;;;;;;520786;28;1163;-61
2022/11/30 01:01:22;;;;;;;54.70;28.67;;;;;;;;;;522049;28;1445;-61
2022/11/30 01:01:37;;;;;;;53.97;27.90;;;;;;;;;;519512;28;1143;-61
2022/11/30 01:01:53;;;;;;;54.57;27.90;;;;;;;;;;521879;28;1200;-61
2022/11/30 01:02:09;;;;;;;55.72;27.65;;;;;;;;;;521488;28;1435;-61
2022/11/30 01:02:24;;;;;;;56.00;27.47;;;;;;;;;;520174;28;1323;-61
2022/11/30 01:02:39;;;;;;;55.17;27.33;;;;;;;;;;522617;28;1716;-61
2022/11/30 01:02:55;;;;;;;51.73;26.63;;;;;;;;;;519998;28;1074;-61
2022/11/30 01:03:12;;;;;;;51.28;26.15;;;;;;;;;;521781;28;1462;-61
2022/11/30 01:03:27;;;;;;;48.63;26.00;;;;;;;;;;520206;28;1609;-61
2022/11/30 01:03:42;;;;;;;46.87;26.23;;;;;;;;;;523229;28;1378;-61
2022/11/30 01:03:58;;;;;;;47.00;25.83;;;;;;;;;;524010;28;1421;-61
2022/11/30 01:04:13;;;;;;;46.00;25.15;;;;;;;;;;523611;28;1217;-61
2022/11/30 01:04:28;;;;;;;44.20;25.20;;;;;;;;;;523641;28;1153;-61
2022/11/30 01:04:43;;;;;;;44.60;25.13;;;;;;;;;;522628;28;1341;-61
2022/11/30 01:04:59;;;;;;;45.80;25.52;;;;;;;;;;522158;28;1456;-61
2022/11/30 01:05:14;;;;;;;46.33;26.43;;;;;;;;;;520887;28;1196;-61
2022/11/30 01:05:32;;;;;;;49.13;26.63;;;;;;;;;;520120;28;1411;-61
2022/11/30 01:05:47;;;;;;;51.33;26.75;;;;;;;;;;520196;28;1158;-61
2022/11/30 01:06:04;;;;;;;51.93;26.90;;;;;;;;;;521701;28;1646;-61
2022/11/30 01:06:19;;;;;;;50.40;26.35;;;;;;;;;;520911;28;1164;-61
2022/11/30 01:06:35;;;;;;;49.00;26.00;;;;;;;;;;521080;28;1117;-61
2022/11/30 01:06:51;;;;;;;50.42;26.35;;;;;;;;;;521351;28;1285;-61
2022/11/30 01:07:06;;;;;;;51.80;26.50;;;;;;;;;;520549;28;2522;-61
2022/11/30 01:07:21;;;;;;;51.77;26.87;;;;;;;;;;521626;28;1141;-61
2022/11/30 01:07:36;;;;;;;51.63;27.25;;;;;;;;;;521079;28;1268;-61
2022/11/30 01:07:52;;;;;;;49.73;26.50;;;;;;;;;;521867;28;1222;-61
2022/11/30 01:08:09;;;;;;;49.97;26.30;;;;;;;;;;521251;28;1137;-61
2022/11/30 01:08:25;;;;;;;52.08;26.85;;;;;;;;;;520741;28;1402;-61
2022/11/30 01:08:40;;;;;;;53.27;26.60;;;;;;;;;;520376;28;1439;-61
2022/11/30 01:08:57;;;;;;;51.33;25.85;;;;;;;;;;521178;28;1984;-61
2022/11/30 01:09:12;;;;;;;51.70;26.17;;;;;;;;;;520462;28;1262;-61
2022/11/30 01:09:27;;;;;;;54.20;26.97;;;;;;;;;;520558;28;1213;-61
2022/11/30 01:09:42;;;;;;;51.05;26.48;;;;;;;;;;520281;28;1118;-61
2022/11/30 01:09:58;;;;;;;47.33;25.83;;;;;;;;;;518262;28;1382;-61
2022/11/30 01:10:13;;;;;;;47.80;25.50;;;;;;;;;;518850;28;1176;-61
2022/11/30 01:10:29;;;;;;;48.80;25.40;;;;;;;;;;520612;28;1907;-61
2022/11/30 01:10:46;;;;;;;49.93;25.50;;;;;;;;;;519995;28;1418;-61
2022/11/30 01:11:08;;;;;;;50.42;25.90;;;;;;;;;;520520;28;1269;-61
2022/11/30 01:11:28;;;;;;;49.42;25.63;;;;;;;;;;520435;28;1399;-61
2022/11/30 01:11:43;;;;;;;48.83;25.23;;;;;;;;;;522412;28;1336;-61
2022/11/30 01:11:58;;;;;;;48.80;25.42;;;;;;;;;;519916;28;1396;-61
2022/11/30 01:12:14;;;;;;;50.33;25.60;;;;;;;;;;519958;28;1380;-61
2022/11/30 01:12:29;;;;;;;51.33;25.50;;;;;;;;;;520437;28;1114;-61
2022/11/30 01:12:44;;;;;;;51.17;25.65;;;;;;;;;;516840;28;1159;-61
2022/11/30 01:13:00;;;;;;;47.97;25.37;;;;;;;;;;520713;28;1578;-61
2022/11/30 01:13:15;;;;;;;44.93;25.17;;;;;;;;;;520027;28;1451;-61
2022/11/30 01:13:30;;;;;;;49.47;25.67;;;;;;;;;;522463;28;1903;-61
2022/11/30 01:13:45;;;;;;;49.17;25.00;;;;;;;;;;522508;28;1407;-61
2022/11/30 01:14:01;;;;;;;46.33;24.40;;;;;;;;;;518692;28;1205;-61
2022/11/30 01:14:16;;;;;;;46.42;24.88;;;;;;;;;;521267;28;1364;-61
2022/11/30 01:14:31;;;;;;;47.23;25.37;;;;;;;;;;521495;28;1363;-61
2022/11/30 01:14:47;;;;;;;50.90;25.90;;;;;;;;;;521193;28;1259;-61
2022/11/30 01:15:02;;;;;;;49.33;25.67;;;;;;;;;;520709;28;1638;-61
2022/11/30 01:15:17;;;;;;;47.50;25.38;;;;;;;;;;521134;28;1109;-61
2022/11/30 01:15:38;;;;;;;48.63;25.03;;;;;;;;;;523063;28;1291;-61
2022/11/30 01:15:53;;;;;;;47.60;24.40;;;;;;;;;;524468;28;1201;-61
2022/11/30 01:16:15;;;;;;;47.47;25.07;;;;;;;;;;518321;28;1206;-61
2022/11/30 01:16:32;;;;;;;48.85;25.17;;;;;;;;;;520810;28;1269;-61
2022/11/30 01:16:47;;;;;;;49.78;25.55;;;;;;;;;;517510;28;1642;-61
2022/11/30 01:17:02;;;;;;;49.53;25.90;;;;;;;;;;520136;28;1359;-61
2022/11/30 01:17:17;;;;;;;49.73;25.73;;;;;;;;;;519658;28;1416;-61
2022/11/30 01:17:33;;;;;;;47.00;25.10;;;;;;;;;;519455;28;1368;-61
2022/11/30 01:17:49;;;;;;;47.10;25.52;;;;;;;;;;519300;28;1431;-61
2022/11/30 01:18:05;;;;;;;50.72;26.02;;;;;;;;;;519332;28;1216;-61
2022/11/30 01:18:20;;;;;;;52.08;26.30;;;;;;;;;;521184;28;1724;-61
2022/11/30 01:18:36;;;;;;;49.87;25.37;;;;;;;;;;521518;28;1229;-60
2022/11/30 01:18:52;;;;;;;51.03;25.25;;;;;;;;;;521166;28;1086;-61
2022/11/30 01:19:07;;;;;;;53.28;26.08;;;;;;;;;;519587;28;1175;-61
2022/11/30 01:19:23;;;;;;;51.87;26.00;;;;;;;;;;522093;28;1348;-61
2022/11/30 01:19:38;;;;;;;50.75;25.90;;;;;;;;;;518119;28;1898;-61
2022/11/30 01:19:53;;;;;;;51.10;25.70;;;;;;;;;;520813;28;1456;-61
2022/11/30 01:20:09;;;;;;;54.33;25.37;;;;;;;;;;517093;28;1369;-61
2022/11/30 01:20:24;;;;;;;56.90;25.73;;;;;;;;;;517526;28;1266;-62
2022/11/30 01:20:41;;;;;;;57.60;27.05;;;;;;;;;;517869;28;1439;-61
2022/11/30 01:20:56;;;;;;;55.20;27.35;;;;;;;;;;515431;28;1347;-61
2022/11/30 01:21:15;;;;;;;48.97;26.07;;;;;;;;;;515241;28;1127;-61
2022/11/30 01:21:30;;;;;;;49.03;25.08;;;;;;;;;;516250;28;1648;-61
2022/11/30 01:21:46;;;;;;;49.50;24.40;;;;;;;;;;516972;28;1742;-61
2022/11/30 01:22:01;;;;;;;46.67;24.00;;;;;;;;;;520195;28;1189;-61
2022/11/30 01:22:16;;;;;;;44.90;24.20;;;;;;;;;;520936;28;1220;-61
2022/11/30 01:22:31;;;;;;;44.00;23.80;;;;;;;;;;519361;28;1495;-61
2022/11/30 01:22:47;;;;;;;44.10;24.00;;;;;;;;;;520099;28;1277;-61
2022/11/30 01:23:02;;;;;;;48.63;25.20;;;;;;;;;;521821;28;1700;-61
2022/11/30 01:23:17;;;;;;;46.93;24.83;;;;;;;;;;521781;28;1133;-61
2022/11/30 01:23:32;;;;;;;43.83;24.10;;;;;;;;;;519918;28;1070;-61
2022/11/30 01:23:48;;;;;;;46.20;25.00;;;;;;;;;;519644;28;1207;-60
2022/11/30 01:24:04;;;;;;;47.57;25.10;;;;;;;;;;522174;28;1423;-61
2022/11/30 01:24:20;;;;;;;48.10;24.63;;;;;;;;;;522126;28;1336;-61
2022/11/30 01:24:35;;;;;;;50.30;25.53;;;;;;;;;;520164;28;1279;-61
2022/11/30 01:24:50;;;;;;;50.10;25.77;;;;;;;;;;520247;28;1939;-61
2022/11/30 01:25:06;;;;;;;48.95;24.70;;;;;;;;;;521201;28;1352;-61
2022/11/30 01:25:22;;;;;;;54.17;25.00;;;;;;;;;;521804;28;1260;-61
2022/11/30 01:25:37;;;;;;;52.83;25.02;;;;;;;;;;520502;28;1357;-61
2022/11/30 01:25:54;;;;;;;51.60;25.63;;;;;;;;;;519751;28;1236;-61
2022/11/30 01:26:09;;;;;;;51.20;26.17;;;;;;;;;;521090;28;1387;-61
2022/11/30 01:26:25;;;;;;;46.97;24.95;;;;;;;;;;522654;28;1890;-61
2022/11/30 01:26:40;;;;;;;48.33;24.87;;;;;;;;;;523934;28;1216;-61
2022/11/30 01:26:55;;;;;;;52.80;25.90;;;;;;;;;;519476;28;1469;-61
2022/11/30 01:27:10;;;;;;;52.83;26.02;;;;;;;;;;519590;28;1124;-61
2022/11/30 01:27:26;;;;;;;50.60;25.53;;;;;;;;;;521806;28;1415;-61
2022/11/30 01:27:41;;;;;;;48.73;25.17;;;;;;;;;;521700;28;1233;-61
2022/11/30 01:27:56;;;;;;;48.97;25.55;;;;;;;;;;521985;28;1685;-61
2022/11/30 01:28:12;;;;;;;54.83;27.17;;;;;;;;;;520881;28;1137;-61
2022/11/30 01:28:27;;;;;;;56.67;27.00;;;;;;;;;;520767;28;1426;-61
2022/11/30 01:28:44;;;;;;;55.57;26.13;;;;;;;;;;522433;28;1334;-61
2022/11/30 01:28:59;;;;;;;55.08;25.45;;;;;;;;;;521643;28;1928;-61
2022/11/30 01:29:14;;;;;;;51.10;25.57;;;;;;;;;;521293;28;1596;-61
2022/11/30 01:29:29;;;;;;;49.28;26.02;;;;;;;;;;522024;28;1795;-61
2022/11/30 01:29:45;;;;;;;48.53;25.13;;;;;;;;;;520117;28;1880;-61
2022/11/30 01:30:00;;;;;;;47.30;24.50;;;;;;;;;;521526;28;1411;-61
2022/11/30 01:30:17;;;;;;;49.28;24.38;;;;;;;;;;522047;28;1346;-61
2022/11/30 01:30:32;;;;;;;50.58;24.83;;;;;;;;;;521050;28;1387;-61
2022/11/30 01:31:08;;;;;;;50.03;24.83;;;;;;;;;;518796;28;1274;-61
2022/11/30 01:31:23;;;;;;;49.17;24.98;;;;;;;;;;520510;28;1566;-61
2022/11/30 01:31:39;;;;;;;45.42;24.50;;;;;;;;;;519653;28;1377;-61
2022/11/30 01:31:54;;;;;;;46.53;24.50;;;;;;;;;;520892;28;1345;-61
2022/11/30 01:32:09;;;;;;;48.20;24.58;;;;;;;;;;519703;28;1408;-61
2022/11/30 01:32:25;;;;;;;48.90;24.87;;;;;;;;;;516606;28;1133;-61
2022/11/30 01:32:40;;;;;;;52.40;25.93;;;;;;;;;;521898;28;1400;-61
2022/11/30 01:33:00;;;;;;;52.90;25.45;;;;;;;;;;519913;28;1651;-60
2022/11/30 01:33:16;;;;;;;50.75;25.85;;;;;;;;;;518637;28;1087;-61
2022/11/30 01:33:31;;;;;;;52.10;26.03;;;;;;;;;;519985;28;1223;-61
2022/11/30 01:33:52;;;;;;;53.13;25.52;;;;;;;;;;518439;28;1342;-61
2022/11/30 01:34:07;;;;;;;51.90;25.25;;;;;;;;;;518957;28;1157;-61
2022/11/30 01:34:22;;;;;;;52.55;25.65;;;;;;;;;;521259;28;1305;-61
2022/11/30 01:34:37;;;;;;;54.60;26.30;;;;;;;;;;518454;28;1662;-61
2022/11/30 01:34:53;;;;;;;51.40;25.87;;;;;;;;;;520709;28;1319;-61
2022/11/30 01:35:08;;;;;;;50.55;25.70;;;;;;;;;;518607;28;1587;-61